Time;durP1;ratioP1;P1;durP2;ratioP2;P2;SDS_P1;SDS_P2;PMS_P1;PMS_P2;Temp;Humidity;BMP_temperature;BMP_pressure;BME280_temperature;BME280_humidity;BME280_pressure;Samples;Min_cycle;Max_cycle;Signal;HPM_P1;HPM_P2
2023/03/07 00:00:12;;;;;;;37.25;17.27;;;;;;;1.27;78.59;98606.16;10511472;28;20098;-80
2023/03/07 00:05:15;;;;;;;25.70;13.18;;;;;;;0.99;79.30;98614.34;10496696;28;20066;-79
2023/03/07 00:10:19;;;;;;;28.65;14.27;;;;;;;1.20;78.66;98593.47;10488284;28;20674;-79
2023/03/07 00:15:23;;;;;;;29.30;14.52;;;;;;;1.21;79.28;98596.03;10491080;28;20096;-80
2023/03/07 00:20:26;;;;;;;27.95;13.80;;;;;;;1.26;79.41;98588.59;10499624;28;20048;-79
2023/03/07 00:25:29;;;;;;;29.98;14.48;;;;;;;1.08;80.11;98583.78;10474593;28;20052;-78
2023/03/07 00:30:33;;;;;;;25.55;10.32;;;;;;;1.27;80.35;98570.94;10488964;28;20045;-79
2023/03/07 00:35:36;;;;;;;24.90;11.23;;;;;;;1.36;79.96;98570.25;10496845;28;20040;-78
2023/03/07 00:40:39;;;;;;;26.70;12.18;;;;;;;1.10;81.34;98545.69;10457781;28;20048;-78
2023/03/07 00:45:43;;;;;;;25.48;11.77;;;;;;;1.40;81.32;98541.78;10480353;28;20041;-78
2023/03/07 00:50:46;;;;;;;24.35;13.30;;;;;;;1.08;81.32;98538.81;10478002;28;20056;-78
2023/03/07 00:55:58;;;;;;;20.10;11.23;;;;;;;1.16;82.50;98528.53;10470914;28;20135;-79
2023/03/07 01:01:03;;;;;;;29.13;14.38;;;;;;;1.39;82.93;98530.34;10508051;28;20047;-78
2023/03/07 01:06:08;;;;;;;18.05;10.45;;;;;;;1.13;84.10;98508.44;10474702;28;20352;-79
2023/03/07 01:11:12;;;;;;;26.50;11.90;;;;;;;1.22;83.42;98515.72;10490090;28;20056;-79
2023/03/07 01:16:19;;;;;;;24.83;12.45;;;;;;;1.16;85.25;98495.00;10479779;28;20044;-79
2023/03/07 01:21:23;;;;;;;17.92;9.27;;;;;;;1.25;84.86;98490.84;10479330;28;20045;-79
2023/03/07 01:26:28;;;;;;;28.77;13.98;;;;;;;1.65;84.22;98486.13;10525167;28;20044;-79
2023/03/07 01:31:32;;;;;;;23.88;13.18;;;;;;;0.94;85.72;98479.00;10506352;28;20044;-79
2023/03/07 01:36:37;;;;;;;22.20;12.30;;;;;;;1.13;88.70;98470.59;10483416;28;20045;-79
2023/03/07 01:41:41;;;;;;;17.85;10.82;;;;;;;1.09;87.54;98471.75;10489830;28;20045;-78
2023/03/07 01:46:52;;;;;;;28.50;14.75;;;;;;;1.48;86.09;98486.50;10491071;28;20049;-78
2023/03/07 01:52:02;;;;;;;18.15;10.43;;;;;;;1.16;87.26;98473.00;10485119;28;20044;-79
2023/03/07 01:57:06;;;;;;;24.55;14.02;;;;;;;1.41;85.90;98457.00;10491879;28;20036;-79
2023/03/07 02:02:15;;;;;;;18.00;11.70;;;;;;;1.04;88.17;98465.00;10485876;28;20144;-79
2023/03/07 02:07:22;;;;;;;20.95;11.85;;;;;;;1.12;88.62;98463.59;10495655;28;20080;-78
2023/03/07 02:12:25;;;;;;;23.90;14.63;;;;;;;1.26;88.56;98455.47;10490924;28;20045;-78
2023/03/07 02:17:30;;;;;;;19.25;11.10;;;;;;;1.20;88.21;98445.38;10484738;28;20040;-79
2023/03/07 02:22:34;;;;;;;20.92;13.68;;;;;;;1.19;88.70;98455.09;10483807;28;20032;-78
2023/03/07 02:27:39;;;;;;;23.38;13.48;;;;;;;1.40;88.23;98444.75;10501063;28;20060;-79
2023/03/07 02:32:43;;;;;;;18.48;11.43;;;;;;;1.36;88.61;98424.75;10494894;28;20060;-78
2023/03/07 02:37:49;;;;;;;22.00;11.20;;;;;;;1.24;88.79;98423.03;10480457;28;20044;-78
2023/03/07 02:43:00;;;;;;;17.10;10.15;;;;;;;1.44;88.12;98419.75;10509491;28;20391;-77
2023/03/07 02:48:03;;;;;;;21.00;11.65;;;;;;;1.26;88.92;98423.75;10505155;28;20036;-80
2023/03/07 02:53:06;;;;;;;22.35;11.93;;;;;;;1.58;87.87;98418.72;10493406;28;20033;-80
2023/03/07 02:58:11;;;;;;;17.63;9.75;;;;;;;1.65;87.94;98416.47;10505779;28;20095;-79
2023/03/07 03:03:14;;;;;;;24.90;14.10;;;;;;;1.68;88.17;98413.59;10482693;28;20099;-79
2023/03/07 03:08:17;;;;;;;29.30;17.05;;;;;;;1.67;88.09;98425.97;10489445;28;20052;-80
2023/03/07 03:13:21;;;;;;;18.52;11.27;;;;;;;1.64;87.82;98412.94;10486846;28;20431;-80
2023/03/07 03:18:27;;;;;;;25.88;14.32;;;;;;;1.87;87.18;98391.84;10481727;28;20036;-79
2023/03/07 03:23:30;;;;;;;22.88;14.23;;;;;;;1.80;87.83;98390.63;10497675;28;20092;-78
2023/03/07 03:28:34;;;;;;;27.23;16.90;;;;;;;1.78;88.33;98384.59;10470626;28;20052;-78
2023/03/07 03:33:38;;;;;;;21.25;13.23;;;;;;;1.76;88.36;98375.94;10493368;28;20036;-78
2023/03/07 03:38:41;;;;;;;35.13;20.63;;;;;;;1.85;88.51;98391.13;10483133;28;20045;-79
2023/03/07 03:43:46;;;;;;;22.58;14.07;;;;;;;1.59;89.90;98369.25;10477053;28;20072;-79
2023/03/07 03:48:54;;;;;;;27.65;16.85;;;;;;;1.95;88.29;98365.63;10470152;28;20052;-78
2023/03/07 03:53:59;;;;;;;28.90;16.95;;;;;;;1.89;88.23;98361.66;10468325;28;20134;-79
2023/03/07 03:59:04;;;;;;;23.20;15.07;;;;;;;1.77;88.31;98409.38;10461925;28;20040;-78
2023/03/07 04:04:07;;;;;;;22.42;13.35;;;;;;;1.79;89.12;98365.97;10464949;28;20457;-78
2023/03/07 04:09:11;;;;;;;18.95;10.20;;;;;;;1.94;88.44;98356.81;10467187;28;20041;-78
2023/03/07 04:14:18;;;;;;;22.80;13.88;;;;;;;1.80;88.68;98362.34;10467555;28;20041;-79
2023/03/07 04:19:21;;;;;;;24.40;15.27;;;;;;;1.71;89.91;98369.19;10467683;28;20047;-79
2023/03/07 04:24:25;;;;;;;29.55;14.57;;;;;;;1.79;89.94;98362.47;10463226;28;20112;-79
2023/03/07 04:29:30;;;;;;;25.25;14.27;;;;;;;1.94;88.58;98371.88;10485903;28;20116;-79
2023/03/07 04:34:38;;;;;;;26.13;12.45;;;;;;;1.76;89.33;98352.13;10468587;28;20049;-78
2023/03/07 04:39:41;;;;;;;25.05;13.23;;;;;;;1.91;88.78;98362.34;10492912;28;20519;-78
2023/03/07 04:44:46;;;;;;;22.05;11.00;;;;;;;1.81;90.52;98364.03;10494069;28;20076;-80
2023/03/07 04:49:49;;;;;;;30.40;17.90;;;;;;;1.76;90.12;98366.19;10487825;28;20048;-79
2023/03/07 04:54:52;;;;;;;10.73;6.93;;;;;;;1.13;92.21;98359.53;10475206;28;20072;-79
2023/03/07 04:59:56;;;;;;;16.15;9.52;;;;;;;1.28;90.88;98353.06;10487014;28;20037;-78
2023/03/07 05:05:00;;;;;;;11.57;6.00;;;;;;;0.74;92.30;98332.41;10471926;28;20052;-79
2023/03/07 05:10:03;;;;;;;9.73;6.35;;;;;;;0.94;92.25;98365.31;10480440;28;20048;-81
2023/03/07 05:15:09;;;;;;;7.95;5.28;;;;;;;1.10;91.41;98367.66;10497605;28;20059;-80
2023/03/07 05:20:12;;;;;;;6.90;4.22;;;;;;;0.73;92.60;98358.00;10514031;28;20068;-78
2023/03/07 05:25:16;;;;;;;9.10;4.80;;;;;;;1.05;91.16;98354.78;10467642;28;20574;-79
2023/03/07 05:30:21;;;;;;;9.10;5.78;;;;;;;1.11;90.82;98356.13;10488427;28;20053;-79
2023/03/07 05:35:24;;;;;;;7.32;4.60;;;;;;;1.30;90.04;98361.75;10501435;28;20052;-78
2023/03/07 05:40:29;;;;;;;8.13;4.78;;;;;;;0.96;91.27;98366.91;10488220;28;20112;-78
2023/03/07 05:45:34;;;;;;;10.68;6.13;;;;;;;1.34;90.08;98365.81;10474906;28;20080;-78
2023/03/07 05:50:37;;;;;;;10.05;5.72;;;;;;;1.36;89.52;98368.38;10478513;28;20045;-79
2023/03/07 05:55:40;;;;;;;7.63;4.45;;;;;;;1.04;91.09;98374.25;10494356;28;20093;-79
2023/03/07 06:00:44;;;;;;;11.52;5.75;;;;;;;1.59;88.08;98382.50;10486265;28;20437;-78
2023/03/07 06:05:49;;;;;;;4.03;3.05;;;;;;;0.90;89.54;98363.84;10478453;28;20114;-79
2023/03/07 06:10:54;;;;;;;4.45;2.65;;;;;;;1.09;88.66;98368.63;10480266;28;20148;-79
2023/03/07 06:15:59;;;;;;;5.75;3.28;;;;;;;1.15;87.33;98366.38;10483603;28;20086;-79
2023/03/07 06:21:05;;;;;;;6.55;3.03;;;;;;;0.83;87.41;98377.50;10477149;28;20140;-79
2023/03/07 06:26:13;;;;;;;2.88;1.48;;;;;;;0.91;86.96;98363.75;10478338;28;20037;-79
2023/03/07 06:31:20;;;;;;;5.22;1.92;;;;;;;1.03;86.45;98348.78;10464847;28;20045;-79
2023/03/07 06:36:23;;;;;;;2.90;1.40;;;;;;;0.95;86.65;98362.53;10465323;28;20048;-79
2023/03/07 06:41:32;;;;;;;6.53;2.38;;;;;;;1.10;86.17;98346.50;10466576;28;20371;-79
2023/03/07 06:46:39;;;;;;;6.70;3.22;;;;;;;1.19;86.05;98351.97;10468583;28;20059;-78
2023/03/07 06:51:47;;;;;;;5.22;1.83;;;;;;;1.09;86.47;98363.34;10491589;28;20048;-78
2023/03/07 06:56:52;;;;;;;7.70;3.42;;;;;;;1.20;86.42;98360.72;10484455;28;20172;-79
2023/03/07 07:02:01;;;;;;;3.35;2.40;;;;;;;1.39;85.37;98370.78;10445925;28;20075;-78
2023/03/07 07:07:05;;;;;;;7.93;3.10;;;;;;;1.35;85.47;98366.69;10472082;28;20098;-79
2023/03/07 07:12:09;;;;;;;11.40;3.60;;;;;;;1.15;87.74;98365.53;10486050;28;20067;-79
2023/03/07 07:17:13;;;;;;;9.73;5.00;;;;;;;1.61;86.26;98364.72;10472961;28;20041;-79
2023/03/07 07:22:17;;;;;;;6.45;4.03;;;;;;;1.19;87.93;98372.28;10490438;28;20052;-80
2023/03/07 07:27:20;;;;;;;5.07;2.80;;;;;;;0.73;89.82;98373.84;10503422;28;20055;-80
2023/03/07 07:32:25;;;;;;;7.30;3.88;;;;;;;0.82;87.83;98361.75;10467675;28;20048;-79
2023/03/07 07:37:28;;;;;;;9.23;4.50;;;;;;;1.25;87.48;98364.72;10472070;28;20106;-79
2023/03/07 07:42:31;;;;;;;8.95;3.50;;;;;;;0.90;87.93;98362.03;10477566;28;20475;-79
2023/03/07 07:47:52;;;;;;;6.15;3.42;;;;;;;0.89;88.19;98370.94;10499635;28;20236;-79
2023/03/07 07:52:57;;;;;;;9.68;3.72;;;;;;;0.79;89.35;98386.59;10497522;28;20086;-79
2023/03/07 07:58:00;;;;;;;6.15;3.05;;;;;;;0.82;89.32;98390.81;10495698;28;20066;-80
2023/03/07 08:03:04;;;;;;;7.38;3.05;;;;;;;0.46;90.61;98399.59;10472337;28;20059;-81
2023/03/07 08:08:07;;;;;;;5.25;3.35;;;;;;;0.58;89.16;98415.44;10493771;28;20043;-79
2023/03/07 08:13:12;;;;;;;5.93;2.30;;;;;;;-0.17;91.78;98406.63;10488259;28;20068;-79
2023/03/07 08:18:16;;;;;;;5.22;2.80;;;;;;;0.41;90.63;98399.91;10476359;28;20041;-79
2023/03/07 08:23:19;;;;;;;4.22;2.85;;;;;;;0.28;89.09;98401.75;10486051;28;20048;-79
2023/03/07 08:28:22;;;;;;;5.38;2.70;;;;;;;0.17;89.69;98405.16;10439969;28;20062;-80
2023/03/07 08:33:26;;;;;;;4.28;2.35;;;;;;;0.21;89.80;98403.97;10447360;28;20151;-79
2023/03/07 08:38:29;;;;;;;3.95;1.85;;;;;;;0.35;88.54;98403.00;10438953;28;20149;-79
2023/03/07 08:43:33;;;;;;;3.17;1.90;;;;;;;0.59;87.17;98406.53;10445894;28;20044;-79
2023/03/07 08:48:37;;;;;;;4.68;2.03;;;;;;;0.74;86.51;98412.56;10431901;28;20048;-79
2023/03/07 08:53:41;;;;;;;3.88;2.55;;;;;;;0.63;85.46;98407.16;10453534;28;20095;-78
2023/03/07 08:58:45;;;;;;;5.00;2.40;;;;;;;0.54;85.42;98419.22;10428136;28;20048;-78
2023/03/07 09:03:49;;;;;;;4.30;2.28;;;;;;;0.56;85.28;98413.84;10435627;28;20164;-78
2023/03/07 09:08:52;;;;;;;5.15;2.53;;;;;;;0.22;85.45;98412.72;10431017;28;20048;-78
2023/03/07 09:13:55;;;;;;;3.28;1.98;;;;;;;0.22;85.86;98408.31;10447763;28;20095;-78
2023/03/07 09:18:59;;;;;;;3.25;1.92;;;;;;;0.19;85.74;98405.03;10451899;28;20044;-79
2023/03/07 09:24:03;;;;;;;3.33;2.10;;;;;;;0.25;85.88;98407.22;10444961;28;20514;-78
2023/03/07 09:29:05;;;;;;;3.67;2.38;;;;;;;0.30;85.51;98413.91;10450059;28;20044;-79
2023/03/07 09:34:10;;;;;;;5.38;2.10;;;;;;;0.39;85.44;98415.06;10455842;28;20479;-79
2023/03/07 09:39:14;;;;;;;3.08;1.63;;;;;;;0.31;85.91;98415.59;10463336;28;20072;-79
2023/03/07 09:44:23;;;;;;;3.78;2.30;;;;;;;0.38;85.46;98418.63;10430973;28;20072;-79
2023/03/07 09:49:54;;;;;;;8.57;2.85;;;;;;;0.05;86.05;98425.31;10443095;28;20048;-79
2023/03/07 09:55:00;;;;;;;4.35;2.50;;;;;;;0.26;85.63;98419.50;10451804;28;20521;-80
2023/03/07 10:00:11;;;;;;;5.35;2.25;;;;;;;-0.12;86.88;98423.81;10447679;28;20052;-80
2023/03/07 10:05:26;;;;;;;4.40;2.75;;;;;;;-0.18;87.16;98426.88;10425931;28;20131;-80
2023/03/07 10:10:36;;;;;;;3.92;1.88;;;;;;;-0.16;86.72;98426.78;10439213;28;20169;-79
2023/03/07 10:15:45;;;;;;;4.85;2.10;;;;;;;-0.54;88.12;98432.84;10431471;28;20175;-80
2023/03/07 10:20:53;;;;;;;4.75;2.85;;;;;;;-0.18;87.66;98420.78;10427396;28;20051;-78
2023/03/07 10:26:02;;;;;;;8.38;2.88;;;;;;;-0.13;86.99;98431.88;10416344;28;20050;-79
2023/03/07 10:31:15;;;;;;;5.65;3.17;;;;;;;-0.04;86.73;98425.94;10430935;28;20037;-79
2023/03/07 10:36:21;;;;;;;7.07;3.50;;;;;;;0.01;86.66;98431.75;10427205;28;20052;-79
2023/03/07 10:41:24;;;;;;;8.23;3.00;;;;;;;0.04;85.92;98430.69;10438144;28;20047;-79
2023/03/07 10:46:30;;;;;;;11.80;2.90;;;;;;;-0.02;85.98;98426.69;10429424;28;20068;-80
2023/03/07 10:51:49;;;;;;;6.20;2.85;;;;;;;0.13;86.02;98428.25;10443278;28;20056;-79
2023/03/07 10:57:07;;;;;;;5.20;2.83;;;;;;;0.16;85.73;98435.13;10477271;28;20059;-80
2023/03/07 11:02:30;;;;;;;6.15;2.83;;;;;;;0.22;85.94;98428.56;10474783;28;20127;-80
2023/03/07 11:07:36;;;;;;;4.70;3.13;;;;;;;0.25;85.81;98431.00;10442503;28;20063;-79
2023/03/07 11:12:46;;;;;;;3.80;2.80;;;;;;;0.09;86.15;98437.34;10442548;28;20040;-79
2023/03/07 11:17:50;;;;;;;4.97;3.22;;;;;;;0.11;86.54;98426.66;10464062;28;20126;-79
2023/03/07 11:23:14;;;;;;;6.53;3.05;;;;;;;0.36;86.87;98429.31;10447527;28;20151;-79
2023/03/07 11:28:30;;;;;;;3.67;2.95;;;;;;;0.36;86.10;98431.97;10446298;28;20048;-78
2023/03/07 11:33:45;;;;;;;3.90;2.90;;;;;;;0.63;85.92;98424.81;10430533;28;20045;-78
2023/03/07 11:39:10;;;;;;;5.10;2.70;;;;;;;0.45;86.16;98425.19;10423896;28;20043;-77
2023/03/07 11:44:22;;;;;;;;;;;;;;;0.61;86.04;98422.31;10426265;28;20056;-78
2023/03/07 11:49:39;;;;;;;3.00;2.22;;;;;;;0.58;86.49;98433.94;10455724;28;19920;-78
2023/03/07 11:54:54;;;;;;;2.35;1.90;;;;;;;0.68;86.62;98441.19;10454875;28;20044;-79
2023/03/07 12:00:22;;;;;;;2.08;1.83;;;;;;;0.64;86.10;98443.22;10446740;28;20880;-80
2023/03/07 12:05:38;;;;;;;2.55;1.77;;;;;;;0.51;86.95;98445.88;10452709;28;20095;-81
2023/03/07 12:10:54;;;;;;;3.72;2.78;;;;;;;0.74;85.96;98446.91;10427629;28;20059;-79
2023/03/07 12:16:07;;;;;;;3.20;2.60;;;;;;;0.55;86.82;98444.72;10443497;28;20123;-80
2023/03/07 12:21:23;;;;;;;4.93;2.70;;;;;;;0.83;86.14;98448.03;10446008;28;20059;-79
2023/03/07 12:26:36;;;;;;;4.53;2.60;;;;;;;0.99;85.29;98448.63;10447122;28;20076;-79
2023/03/07 12:31:42;;;;;;;4.65;2.78;;;;;;;0.90;85.61;98435.22;10437143;28;20048;-79
2023/03/07 12:36:49;;;;;;;2.90;2.03;;;;;;;0.68;85.11;98441.19;10445541;28;20516;-78
2023/03/07 12:42:02;;;;;;;5.75;1.98;;;;;;;0.72;86.55;98447.97;10427943;28;20052;-79
2023/03/07 12:47:15;;;;;;;2.38;1.50;;;;;;;1.06;85.97;98446.38;10461081;28;20110;-79
2023/03/07 12:52:29;;;;;;;1.80;1.65;;;;;;;0.71;86.94;98452.38;10458862;28;20522;-82
2023/03/07 12:57:40;;;;;;;4.75;2.03;;;;;;;0.57;86.46;98457.81;10452482;28;20063;-81
2023/03/07 13:02:47;;;;;;;5.78;3.38;;;;;;;0.63;86.86;98445.97;10439419;28;20102;-81
2023/03/07 13:07:50;;;;;;;4.55;3.25;;;;;;;0.63;87.74;98449.44;10440053;28;20045;-81
2023/03/07 13:12:54;;;;;;;5.40;3.83;;;;;;;0.89;86.38;98439.66;10451136;28;20124;-81
2023/03/07 13:17:59;;;;;;;7.20;3.80;;;;;;;0.91;86.84;98442.22;10443749;28;20075;-80
2023/03/07 13:23:28;;;;;;;3.28;2.10;;;;;;;1.03;87.05;98430.72;10453252;28;20059;-79
2023/03/07 13:28:35;;;;;;;3.53;2.72;;;;;;;1.19;86.61;98433.09;10441686;28;20703;-78
2023/03/07 13:33:38;;;;;;;5.30;3.10;;;;;;;0.70;86.80;98434.00;10456850;28;20093;-79
2023/03/07 13:38:42;;;;;;;3.47;2.60;;;;;;;1.07;85.92;98432.22;10472049;28;20051;-77
2023/03/07 13:44:00;;;;;;;4.35;2.38;;;;;;;0.99;86.25;98431.94;10449199;28;20050;-77
2023/03/07 13:49:03;;;;;;;2.58;2.17;;;;;;;1.31;85.59;98439.28;10451863;28;20151;-78
2023/03/07 13:54:11;;;;;;;4.35;2.75;;;;;;;1.13;85.74;98428.28;10457745;28;20045;-78
2023/03/07 13:59:23;;;;;;;4.80;3.38;;;;;;;1.43;85.08;98431.31;10458252;28;20075;-78
2023/03/07 14:04:30;;;;;;;6.18;3.60;;;;;;;1.37;85.27;98437.06;10446081;28;20068;-78
2023/03/07 14:09:46;;;;;;;7.45;5.25;;;;;;;1.30;85.17;98429.69;10459686;28;20195;-79
2023/03/07 14:15:04;;;;;;;8.73;5.25;;;;;;;1.49;84.55;98430.84;10471337;28;20048;-78
2023/03/07 14:20:17;;;;;;;12.68;5.75;;;;;;;1.67;83.91;98433.06;10454557;28;20045;-78
2023/03/07 14:25:23;;;;;;;9.45;4.43;;;;;;;1.55;83.06;98431.34;10448720;28;20051;-77
2023/03/07 14:30:31;;;;;;;4.63;3.13;;;;;;;1.32;83.73;98436.53;10434185;28;20052;-77
2023/03/07 14:35:36;;;;;;;7.35;4.72;;;;;;;1.16;84.37;98447.41;10465767;28;20087;-78
2023/03/07 14:40:52;;;;;;;4.18;2.40;;;;;;;1.03;84.94;98443.94;10469305;28;20179;-79
2023/03/07 14:46:05;;;;;;;5.25;3.83;;;;;;;1.19;83.97;98448.97;10467505;28;20140;-78
2023/03/07 14:51:14;;;;;;;7.35;3.25;;;;;;;1.20;84.36;98458.59;10460989;28;20709;-78
2023/03/07 14:56:21;;;;;;;10.82;3.50;;;;;;;1.59;82.63;98440.72;10467476;28;20064;-78
2023/03/07 15:01:30;;;;;;;6.88;3.50;;;;;;;1.66;81.71;98434.03;10461039;28;20095;-77
2023/03/07 15:06:42;;;;;;;3.70;2.15;;;;;;;1.04;82.81;98435.06;10467149;28;20048;-78
2023/03/07 15:11:51;;;;;;;4.22;2.00;;;;;;;0.74;85.47;98449.56;10458158;28;20040;-78
2023/03/07 15:17:00;;;;;;;4.72;1.90;;;;;;;1.34;83.95;98453.13;10453713;28;20108;-79
2023/03/07 15:22:06;;;;;;;5.25;2.20;;;;;;;1.13;83.62;98465.28;10426585;28;20049;-78
2023/03/07 15:27:13;;;;;;;6.07;2.97;;;;;;;1.49;83.09;98464.41;10444579;28;20112;-78
2023/03/07 15:32:33;;;;;;;6.95;3.00;;;;;;;1.72;82.99;98471.44;10460028;28;20071;-79
2023/03/07 15:37:50;;;;;;;4.93;2.72;;;;;;;1.35;80.80;98480.44;10458287;28;20406;-79
2023/03/07 15:42:55;;;;;;;4.40;2.78;;;;;;;0.88;81.66;98492.63;10439820;28;21286;-81
2023/03/07 15:48:02;;;;;;;7.60;3.17;;;;;;;0.81;82.78;98492.22;10436730;28;21605;-81
2023/03/07 15:53:08;;;;;;;4.95;2.33;;;;;;;0.77;82.73;98496.91;10450972;28;20048;-80
2023/03/07 15:58:14;;;;;;;7.57;2.97;;;;;;;0.62;82.85;98500.59;10444604;28;20037;-81
2023/03/07 16:03:24;;;;;;;19.10;7.82;;;;;;;0.65;82.79;98512.75;10442833;28;20749;-81
2023/03/07 16:08:28;;;;;;;17.58;8.75;;;;;;;0.57;82.69;98521.22;10442931;28;20040;-80
2023/03/07 16:13:32;;;;;;;10.88;4.10;;;;;;;0.41;82.65;98523.22;10476411;28;20053;-81
2023/03/07 16:18:37;;;;;;;8.65;2.72;;;;;;;0.40;83.08;98519.75;10456773;28;20053;-81
2023/03/07 16:23:40;;;;;;;4.22;2.30;;;;;;;0.19;83.48;98524.69;10444900;28;20158;-82
2023/03/07 16:28:44;;;;;;;5.28;2.55;;;;;;;0.09;83.98;98526.28;10445290;28;20048;-81
2023/03/07 16:33:49;;;;;;;6.78;3.00;;;;;;;0.23;83.89;98535.91;10460622;28;20155;-81
2023/03/07 16:38:51;;;;;;;12.27;4.65;;;;;;;0.35;84.17;98529.78;10446407;28;20044;-81
2023/03/07 16:43:56;;;;;;;12.50;5.35;;;;;;;0.40;83.87;98525.03;10436505;28;20091;-81
2023/03/07 16:49:00;;;;;;;8.95;4.18;;;;;;;0.41;83.71;98524.06;10425092;28;20053;-82
2023/03/07 16:54:03;;;;;;;9.35;3.88;;;;;;;0.39;83.82;98536.56;10451608;28;20049;-82
2023/03/07 16:59:07;;;;;;;12.75;4.68;;;;;;;0.41;83.87;98541.72;10433376;28;20056;-80
2023/03/07 17:04:11;;;;;;;20.65;9.20;;;;;;;0.41;83.93;98539.91;10455165;28;20044;-81
2023/03/07 17:09:14;;;;;;;13.13;7.50;;;;;;;0.34;83.74;98555.34;10442668;28;20222;-80
2023/03/07 17:14:18;;;;;;;10.25;5.47;;;;;;;0.28;83.88;98558.41;10437501;28;20048;-80
2023/03/07 17:19:25;;;;;;;16.67;5.13;;;;;;;-0.04;84.41;98557.06;10438248;28;20150;-81
2023/03/07 17:24:29;;;;;;;8.73;3.80;;;;;;;-0.03;84.77;98570.16;10447889;28;20044;-81
2023/03/07 17:29:38;;;;;;;7.57;4.00;;;;;;;-0.02;84.81;98582.44;10471903;28;20049;-80
2023/03/07 17:34:42;;;;;;;10.15;3.88;;;;;;;-0.06;85.10;98583.56;10435114;28;20108;-80
2023/03/07 17:39:45;;;;;;;5.82;3.60;;;;;;;-0.08;84.85;98585.47;10433879;28;20148;-82
2023/03/07 17:44:48;;;;;;;7.72;3.63;;;;;;;-0.09;84.90;98594.31;10440047;28;20418;-81
2023/03/07 17:49:52;;;;;;;6.85;3.10;;;;;;;-0.30;85.89;98601.88;10434659;28;20052;-80
2023/03/07 17:54:55;;;;;;;6.10;3.50;;;;;;;-0.06;84.92;98602.88;10429910;28;20134;-80
2023/03/07 17:59:58;;;;;;;7.60;4.25;;;;;;;0.05;84.64;98617.19;10444110;28;20051;-80
2023/03/07 18:05:02;;;;;;;11.52;4.30;;;;;;;-0.18;85.40;98618.69;10429709;28;20054;-83
2023/03/07 18:10:06;;;;;;;7.47;4.50;;;;;;;-0.30;85.61;98621.19;10467746;28;20075;-81
2023/03/07 18:15:13;;;;;;;10.10;6.25;;;;;;;-0.08;85.12;98628.56;10445177;28;20049;-81
2023/03/07 18:20:20;;;;;;;13.50;4.50;;;;;;;-0.41;85.86;98623.66;10486956;28;20040;-80
2023/03/07 18:25:23;;;;;;;9.90;4.38;;;;;;;-0.28;85.41;98636.91;10444200;28;20059;-81
2023/03/07 18:30:27;;;;;;;20.90;5.60;;;;;;;-0.14;85.29;98628.09;10455942;28;20126;-80
2023/03/07 18:35:35;;;;;;;14.23;5.93;;;;;;;-0.15;85.22;98637.81;10454582;28;20048;-81
2023/03/07 18:40:38;;;;;;;9.85;5.75;;;;;;;-0.29;86.09;98643.97;10448883;28;20048;-80
2023/03/07 18:45:42;;;;;;;6.88;4.53;;;;;;;-0.61;87.30;98639.88;10447164;28;20083;-81
2023/03/07 18:50:55;;;;;;;8.63;4.72;;;;;;;-0.43;86.56;98644.00;10431472;28;20059;-80
2023/03/07 18:56:02;;;;;;;7.88;5.25;;;;;;;-0.25;86.29;98649.03;10433027;28;20044;-80
2023/03/07 19:01:13;;;;;;;11.90;7.18;;;;;;;-0.33;86.76;98657.44;10444994;28;20048;-79
2023/03/07 19:06:19;;;;;;;9.27;6.40;;;;;;;-0.48;87.35;98659.28;10442359;28;20063;-80
2023/03/07 19:11:22;;;;;;;10.80;5.93;;;;;;;-0.52;87.55;98670.97;10432833;28;20053;-81
2023/03/07 19:16:27;;;;;;;7.30;4.43;;;;;;;-0.56;87.01;98666.81;10440779;28;20064;-81
2023/03/07 19:21:31;;;;;;;8.18;5.28;;;;;;;-0.37;86.52;98679.72;10448462;28;20041;-79
2023/03/07 19:26:34;;;;;;;8.60;5.15;;;;;;;-0.27;86.41;98683.47;10445521;28;20060;-80
2023/03/07 19:31:37;;;;;;;12.93;5.78;;;;;;;-0.60;87.77;98689.91;10451778;28;20099;-81
2023/03/07 19:36:41;;;;;;;10.82;5.00;;;;;;;-0.44;87.25;98692.41;10457738;28;20064;-81
2023/03/07 19:41:46;;;;;;;12.10;5.35;;;;;;;-0.50;86.94;98695.44;10431876;28;20048;-81
2023/03/07 19:46:49;;;;;;;7.95;5.05;;;;;;;-0.62;87.20;98701.50;10429780;28;20075;-80
2023/03/07 19:51:53;;;;;;;10.68;5.40;;;;;;;-0.37;86.81;98706.94;10446111;28;20045;-80
2023/03/07 19:56:56;;;;;;;8.63;4.47;;;;;;;-0.61;88.14;98711.09;10473059;28;20100;-81
2023/03/07 20:01:59;;;;;;;7.45;4.50;;;;;;;-0.44;86.80;98700.31;10454940;28;20044;-81
2023/03/07 20:07:03;;;;;;;8.55;4.35;;;;;;;-0.63;87.40;98712.97;10463203;28;20052;-80
2023/03/07 20:12:08;;;;;;;6.60;4.47;;;;;;;-0.69;87.96;98714.19;10455508;28;20044;-81
2023/03/07 20:17:12;;;;;;;6.97;5.10;;;;;;;-0.51;87.44;98730.69;10442241;28;20135;-81
2023/03/07 20:22:17;;;;;;;10.77;4.88;;;;;;;-0.35;86.18;98723.53;10443757;28;20136;-81
2023/03/07 20:27:22;;;;;;;10.05;5.60;;;;;;;-0.47;87.12;98726.91;10452260;28;20049;-82
2023/03/07 20:32:25;;;;;;;9.43;5.47;;;;;;;-0.51;86.53;98730.69;10459784;28;20052;-82
2023/03/07 20:37:31;;;;;;;10.13;6.35;;;;;;;-0.72;87.70;98727.56;10437742;28;20033;-81
2023/03/07 20:42:34;;;;;;;11.43;7.45;;;;;;;-0.47;87.31;98732.19;10459048;28;20165;-81
2023/03/07 20:47:37;;;;;;;13.70;7.32;;;;;;;-0.37;86.62;98738.59;10444742;28;20052;-82
2023/03/07 20:52:41;;;;;;;12.15;7.57;;;;;;;-0.51;86.58;98747.34;10448334;28;20109;-81
2023/03/07 20:57:44;;;;;;;11.05;8.23;;;;;;;-0.35;86.13;98754.34;10443352;28;20102;-81
2023/03/07 21:02:47;;;;;;;11.48;7.05;;;;;;;-0.69;87.07;98756.38;10438963;28;20049;-81
2023/03/07 21:08:08;;;;;;;13.32;7.55;;;;;;;-0.71;87.16;98755.66;10433458;28;20051;-79
2023/03/07 21:13:12;;;;;;;14.30;7.65;;;;;;;-0.56;86.24;98756.50;10451312;28;20048;-80
2023/03/07 21:18:14;;;;;;;16.50;7.53;;;;;;;-0.48;86.07;98766.59;10428377;28;20074;-80
2023/03/07 21:23:19;;;;;;;12.02;7.25;;;;;;;-0.44;86.22;98766.28;10441372;28;20045;-82
2023/03/07 21:28:21;;;;;;;14.93;7.22;;;;;;;-0.52;86.61;98779.97;10449551;28;20064;-81
2023/03/07 21:33:24;;;;;;;10.75;7.22;;;;;;;-0.73;86.59;98778.63;10445318;28;20048;-81
2023/03/07 21:38:29;;;;;;;15.60;7.22;;;;;;;-0.44;85.98;98773.34;10452947;28;20470;-82
2023/03/07 21:43:32;;;;;;;14.35;7.22;;;;;;;-0.48;86.16;98785.03;10462056;28;21241;-82
2023/03/07 21:48:36;;;;;;;12.50;8.30;;;;;;;-0.49;85.72;98778.94;10463266;28;20048;-82
2023/03/07 21:53:40;;;;;;;16.27;9.10;;;;;;;-0.09;84.75;98787.84;10447401;28;20057;-83
2023/03/07 21:58:43;;;;;;;11.85;8.18;;;;;;;-0.13;84.18;98778.44;10451915;28;20485;-81
2023/03/07 22:03:46;;;;;;;18.38;7.90;;;;;;;-0.14;84.08;98792.59;10444304;28;20058;-81
2023/03/07 22:08:51;;;;;;;13.23;7.85;;;;;;;-0.17;84.35;98802.47;10439085;28;20415;-82
2023/03/07 22:13:54;;;;;;;11.23;8.05;;;;;;;-0.23;84.85;98800.22;10457443;28;20076;-81
2023/03/07 22:18:57;;;;;;;12.27;7.68;;;;;;;-0.42;84.81;98808.41;10430414;28;20049;-83
2023/03/07 22:24:01;;;;;;;13.25;8.07;;;;;;;-0.34;85.08;98801.72;10509557;23;20060;-80
2023/03/07 22:29:04;;;;;;;14.90;7.85;;;;;;;-0.50;85.16;98809.72;10534549;28;20143;-78
2023/03/07 22:34:07;;;;;;;13.02;8.23;;;;;;;-0.02;83.77;98825.28;10539450;28;20044;-79
2023/03/07 22:39:11;;;;;;;11.68;6.85;;;;;;;-0.08;83.34;98818.59;10518741;28;20063;-79
2023/03/07 22:44:14;;;;;;;18.00;8.25;;;;;;;0.02;83.10;98818.00;10539926;28;20082;-78
2023/03/07 22:49:17;;;;;;;10.63;6.90;;;;;;;0.02;83.15;98815.38;10527318;28;20040;-79
2023/03/07 22:54:21;;;;;;;14.48;7.55;;;;;;;-0.07;83.14;98822.09;10538517;28;20063;-82
2023/03/07 22:59:24;;;;;;;12.82;7.90;;;;;;;-0.24;84.02;98820.47;10534109;28;20036;-80
2023/03/07 23:04:29;;;;;;;15.38;8.40;;;;;;;-0.05;83.13;98812.28;10517401;28;20116;-81
2023/03/07 23:09:33;;;;;;;15.52;8.85;;;;;;;-0.02;82.98;98817.38;10536869;28;20129;-81
2023/03/07 23:14:37;;;;;;;13.27;8.57;;;;;;;-0.07;83.22;98820.28;10538643;28;20037;-79
2023/03/07 23:19:40;;;;;;;12.65;7.72;;;;;;;-0.13;83.16;98809.28;10517946;28;20075;-81
2023/03/07 23:24:44;;;;;;;12.73;8.05;;;;;;;-0.18;83.43;98822.75;10519369;28;20071;-80
2023/03/07 23:29:47;;;;;;;16.27;9.13;;;;;;;-0.18;83.79;98828.03;10531182;28;20118;-80
2023/03/07 23:34:50;;;;;;;13.45;7.50;;;;;;;-0.17;84.44;98815.66;10541239;28;20040;-80
2023/03/07 23:39:54;;;;;;;11.95;7.50;;;;;;;-0.08;83.42;98821.25;10511600;28;20041;-79
2023/03/07 23:44:56;;;;;;;14.35;8.27;;;;;;;-0.22;83.73;98833.56;10529905;28;20050;-80